createdAt,value
2023-04-28T01:08:39.119Z,96848.84
2023-04-28T01:11:10.873Z,96861.75
2023-04-28T01:13:38.874Z,96840.22
2023-04-28T01:18:49.571Z,96848.41
2023-04-28T01:24:23.159Z,96842.16
2023-04-28T01:26:51.808Z,96826.19
2023-04-28T01:29:23.836Z,96823.44
2023-04-28T01:31:55.419Z,96819.69
2023-04-28T01:37:12.962Z,96817.78
2023-04-28T01:39:42.835Z,96821.75
2023-04-28T01:42:11.057Z,96823.69
2023-04-28T01:44:41.553Z,96832.06
2023-04-28T01:47:08.751Z,96833.06
2023-04-28T01:49:35.949Z,96812.13
2023-04-28T01:52:04.221Z,96813.44
2023-04-28T01:54:31.463Z,96833.31
2023-04-28T01:56:58.491Z,96842.00
2023-04-28T01:59:25.654Z,96827.59
2023-04-28T02:01:52.796Z,96823.16
2023-04-28T02:04:22.775Z,96828.72
2023-04-28T02:06:50.078Z,96824.81
2023-04-28T02:09:17.324Z,96817.47
2023-04-28T02:11:44.584Z,96830.41
2023-04-28T02:14:12.581Z,96843.28
2023-04-28T02:16:39.635Z,96825.16
2023-04-28T02:19:06.585Z,96826.78
2023-04-28T02:21:33.564Z,96818.78
2023-04-28T02:24:00.393Z,96815.66
2023-04-28T02:26:27.207Z,96813.22
2023-04-28T02:28:53.945Z,96803.25
2023-04-28T02:31:21.209Z,96799.97
2023-04-28T02:33:48.244Z,96801.91
2023-04-28T02:36:15.158Z,96786.88
2023-04-28T02:38:42.158Z,96793.56
2023-04-28T02:41:11.790Z,96784.13
2023-04-28T02:43:38.774Z,96803.88
2023-04-28T02:46:05.951Z,96792.28
2023-04-28T02:48:35.589Z,96786.19
2023-04-28T02:51:02.687Z,96783.06
2023-04-28T02:53:29.501Z,96803.66
2023-04-28T02:55:56.291Z,96794.16
2023-04-28T02:58:25.504Z,96799.69
2023-04-28T03:00:52.244Z,96796.25
2023-04-28T03:03:19.206Z,96790.81
2023-04-28T03:05:46.307Z,96784.13
2023-04-28T03:08:13.465Z,96784.47
2023-04-28T03:10:40.358Z,96794.97
2023-04-28T03:13:07.345Z,96804.44
2023-04-28T03:15:34.112Z,96793.44
2023-04-28T03:18:01.435Z,96780.19
2023-04-28T03:20:28.642Z,96781.25
2023-04-28T03:22:55.417Z,96770.44
2023-04-28T03:25:22.233Z,96765.66
2023-04-28T03:27:48.916Z,96760.78
2023-04-28T03:30:15.683Z,96756.88
2023-04-28T03:32:42.569Z,96746.84
2023-04-28T03:35:09.846Z,96740.06
2023-04-28T03:37:36.789Z,96757.41
2023-04-28T03:40:03.681Z,96739.88
2023-04-28T03:42:30.595Z,96737.53
2023-04-28T03:44:57.455Z,96733.25
2023-04-28T03:47:24.253Z,96741.25
2023-04-28T03:49:52.352Z,96726.56
2023-04-28T03:52:19.073Z,96725.84
2023-04-28T03:54:46.382Z,96728.19
2023-04-28T03:57:13.085Z,96735.34
2023-04-28T03:59:40.065Z,96748.00
2023-04-28T04:02:07.119Z,96740.22
2023-04-28T04:04:34.155Z,96742.56
2023-04-28T04:07:01.615Z,96727.19
2023-04-28T04:09:28.595Z,96737.53
2023-04-28T04:11:55.332Z,96737.16
2023-04-28T04:14:22.430Z,96739.63
2023-04-28T04:16:49.665Z,96746.84
2023-04-28T04:19:16.745Z,96741.59
2023-04-28T04:21:44.581Z,96739.97
2023-04-28T04:24:11.366Z,96741.88
2023-04-28T04:26:38.140Z,96725.75
2023-04-28T04:29:04.864Z,96733.19
2023-04-28T04:31:31.881Z,96707.56
2023-04-28T04:33:58.704Z,96710.09
2023-04-28T04:36:25.523Z,96695.34
2023-04-28T04:38:53.859Z,96700.41
2023-04-28T04:41:21.280Z,96680.31
2023-04-28T04:43:48.006Z,96682.22
2023-04-28T04:46:15.049Z,96675.44
2023-04-28T04:48:41.759Z,96684.13
2023-04-28T04:51:08.475Z,96673.63
2023-04-28T04:53:35.151Z,96680.31
2023-04-28T04:56:01.860Z,96690.28
2023-04-28T04:58:28.603Z,96669.66
2023-04-28T05:00:55.551Z,96667.03
2023-04-28T05:03:22.353Z,96675.34
2023-04-28T05:05:49.343Z,96665.56
2023-04-28T05:08:16.047Z,96681.19
2023-04-28T05:10:42.803Z,96669.16
2023-04-28T05:13:09.568Z,96654.50
2023-04-28T05:15:36.912Z,96657.88
2023-04-28T05:18:09.914Z,96674.63
2023-04-28T05:20:37.392Z,96643.19
2023-04-28T05:23:04.099Z,96664.41
2023-04-28T05:25:31.389Z,96668.03
2023-04-28T05:27:58.201Z,96658.41
2023-04-28T05:30:24.915Z,96658.88
2023-04-28T05:32:51.727Z,96657.03
2023-04-28T05:35:18.616Z,96653.72
2023-04-28T05:37:45.515Z,96662.50
2023-04-28T05:40:12.436Z,96654.00
2023-04-28T05:42:39.332Z,96651.19
2023-04-28T05:45:07.100Z,96654.81
2023-04-28T05:47:33.897Z,96654.63
2023-04-28T05:50:00.645Z,96662.94
2023-04-28T05:52:27.697Z,96662.25
2023-04-28T05:54:54.629Z,96664.41
2023-04-28T05:57:21.625Z,96654.19
2023-04-28T05:59:48.527Z,96660.16
2023-04-28T06:02:15.298Z,96643.03
2023-04-28T06:04:42.422Z,96650.56
2023-04-28T06:07:09.285Z,96652.38
2023-04-28T06:09:36.821Z,96644.44
2023-04-28T06:12:04.247Z,96649.88
2023-04-28T06:14:31.101Z,96648.50
2023-04-28T06:16:57.932Z,96647.25
2023-04-28T06:19:26.108Z,96667.66
2023-04-28T06:21:53.351Z,96637.94
2023-04-28T06:24:20.038Z,96652.63
2023-04-28T06:26:46.848Z,96644.00
2023-04-28T06:29:13.969Z,96645.00
2023-04-28T06:31:40.809Z,96638.84
2023-04-28T06:34:09.799Z,96618.44
2023-04-28T06:36:36.573Z,96626.75
2023-04-28T06:39:03.600Z,96634.25
2023-04-28T06:41:30.530Z,96622.50
2023-04-28T06:43:57.530Z,96614.28
2023-04-28T06:46:24.277Z,96610.81
2023-04-28T06:48:51.104Z,96624.22
2023-04-28T06:51:17.804Z,96632.94
2023-04-28T06:53:44.553Z,96614.78
2023-04-28T06:56:11.842Z,96627.41
2023-04-28T06:58:38.770Z,96604.25
2023-04-28T07:01:05.946Z,96634.69
2023-04-28T07:03:32.841Z,96620.16
2023-04-28T07:05:59.922Z,96615.72
2023-04-28T07:08:26.903Z,96614.91
2023-04-28T07:10:53.782Z,96607.25
2023-04-28T07:13:20.580Z,96603.72
2023-04-28T07:15:47.397Z,96622.66
2023-04-28T07:18:14.085Z,96618.44
2023-04-28T07:20:40.732Z,96618.88
2023-04-28T07:23:07.477Z,96618.59
2023-04-28T07:25:35.329Z,96626.94
2023-04-28T07:28:03.998Z,96606.09
2023-04-28T07:30:30.942Z,96601.34
2023-04-28T07:32:58.577Z,96608.06
2023-04-28T07:35:25.818Z,96607.44
2023-04-28T07:37:53.088Z,96604.03
2023-04-28T07:40:20.226Z,96605.28
2023-04-28T07:42:47.411Z,96623.59
2023-04-28T07:45:16.105Z,96625.97
2023-04-28T07:47:43.096Z,96615.97
2023-04-28T07:50:12.658Z,96632.72
2023-04-28T07:52:39.921Z,96622.59
2023-04-28T07:55:07.444Z,96635.78
2023-04-28T07:57:34.411Z,96615.00
2023-04-28T08:00:01.471Z,96628.13
2023-04-28T08:02:28.534Z,96615.28
2023-04-28T08:04:55.807Z,96607.84
2023-04-28T08:07:22.902Z,96610.28
2023-04-28T08:09:50.728Z,96619.81
2023-04-28T08:12:19.287Z,96632.41
2023-04-28T08:14:46.743Z,96623.38
2023-04-28T08:17:13.537Z,96618.22
2023-04-28T08:19:40.379Z,96618.63
2023-04-28T08:22:07.871Z,96610.47
2023-04-28T08:24:37.729Z,96610.22
2023-04-28T08:27:04.722Z,96619.25
2023-04-28T08:29:32.266Z,96618.81
2023-04-28T08:31:59.831Z,96617.78
2023-04-28T08:34:26.830Z,96638.22
2023-04-28T08:36:53.875Z,96630.16
2023-04-28T08:39:22.569Z,96627.16
2023-04-28T08:41:49.749Z,96628.25
2023-04-28T08:44:18.022Z,96650.69
2023-04-28T08:46:46.919Z,96634.00
2023-04-28T08:49:16.729Z,96628.63
2023-04-28T08:52:00.387Z,96641.66
2023-04-28T08:54:36.683Z,96629.47
2023-04-28T08:57:05.704Z,96630.09
2023-04-28T08:59:33.261Z,96627.66
2023-04-28T09:02:00.841Z,96636.28
2023-04-28T09:04:28.201Z,96629.94
2023-04-28T09:06:55.519Z,96646.47
2023-04-28T09:09:27.675Z,96649.09
2023-04-28T09:12:02.497Z,96639.72
2023-04-28T09:14:30.901Z,96640.19
2023-04-28T09:16:57.909Z,96623.59
2023-04-28T09:19:25.382Z,96641.09
2023-04-28T09:21:55.212Z,96643.75
2023-04-28T09:24:43.118Z,96641.75
2023-04-28T09:27:11.987Z,96620.97
2023-04-28T09:29:39.980Z,96645.06
2023-04-28T09:32:20.225Z,96629.47
2023-04-28T09:34:49.780Z,96643.34
2023-04-28T09:37:19.068Z,96633.66
2023-04-28T09:39:54.385Z,96638.84
2023-04-28T09:42:35.723Z,96630.25
2023-04-28T09:45:06.750Z,96628.69
2023-04-28T09:47:36.071Z,96624.41
2023-04-28T09:50:09.677Z,96614.00
2023-04-28T09:52:36.894Z,96627.75
2023-04-28T09:55:06.579Z,96609.94
2023-04-28T09:57:38.667Z,96606.50
2023-04-28T10:00:09.739Z,96585.56
2023-04-28T10:05:10.227Z,96593.59
2023-04-28T10:07:39.453Z,96593.63
2023-04-28T10:10:11.094Z,96594.47
2023-04-28T10:12:39.100Z,96612.56
2023-04-28T10:15:08.212Z,96599.13
2023-04-28T10:17:38.811Z,96606.38
2023-04-28T10:20:10.304Z,96599.88
2023-04-28T10:23:08.550Z,96618.03
2023-04-28T10:25:41.931Z,96598.78
2023-04-28T10:28:10.781Z,96599.53
2023-04-28T10:30:40.555Z,96602.03
2023-04-28T10:33:13.590Z,96614.97
2023-04-28T10:35:52.764Z,96610.22
2023-04-28T10:38:25.393Z,96597.63
2023-04-28T10:40:57.219Z,96582.63
2023-04-28T10:43:33.428Z,96596.59
2023-04-28T10:46:10.628Z,96598.97
2023-04-28T10:48:56.851Z,96599.69
2023-04-28T10:51:33.525Z,96586.34
2023-04-28T10:54:12.497Z,96600.31
2023-04-28T10:56:51.648Z,96588.16
2023-04-28T10:59:29.109Z,96598.16
2023-04-28T11:01:57.664Z,96599.56
2023-04-28T11:04:30.364Z,96598.31
2023-04-28T11:07:16.155Z,96583.38
2023-04-28T11:09:46.612Z,96595.31
2023-04-28T11:15:25.122Z,96585.59
2023-04-28T11:17:57.606Z,96579.94
2023-04-28T11:20:26.739Z,96583.03
2023-04-28T11:22:56.223Z,96576.44
2023-04-28T11:25:31.943Z,96572.31
2023-04-28T11:28:11.989Z,96573.06
2023-04-28T11:30:52.547Z,96566.84
2023-04-28T11:33:27.163Z,96571.56
2023-04-28T11:35:58.590Z,96580.69
2023-04-28T11:38:26.424Z,96570.78
2023-04-28T11:41:15.924Z,96565.56
2023-04-28T11:43:57.019Z,96568.75
2023-04-28T11:46:25.984Z,96581.38
2023-04-28T11:49:06.296Z,96588.34
2023-04-28T11:51:39.041Z,96580.75
2023-04-28T11:54:12.117Z,96562.50
2023-04-28T11:56:42.726Z,96562.84
2023-04-28T11:59:11.549Z,96580.13
2023-04-28T12:01:51.197Z,96571.97
2023-04-28T12:04:43.816Z,96569.78
2023-04-28T12:07:13.639Z,96568.34
2023-04-28T12:10:00.691Z,96572.22
2023-04-28T12:15:10.135Z,96569.00
2023-04-28T12:17:41.842Z,96568.13
2023-04-28T12:20:11.987Z,96580.44
2023-04-28T12:22:51.834Z,96579.47
2023-04-28T12:25:23.318Z,96578.19
2023-04-28T12:28:06.411Z,96573.84
2023-04-28T12:30:42.801Z,96573.63
2023-04-28T12:33:31.404Z,96580.44
2023-04-28T12:36:03.927Z,96584.94
2023-04-28T12:38:31.260Z,96581.31
2023-04-28T12:40:59.448Z,96585.44
2023-04-28T12:43:27.763Z,96587.47
2023-04-28T12:45:55.691Z,96600.09
2023-04-28T12:48:25.940Z,96588.44
2023-04-28T12:50:53.068Z,96604.22
2023-04-28T12:53:20.359Z,96581.09
2023-04-28T12:55:47.698Z,96571.38
2023-04-28T12:58:14.942Z,96577.75
2023-04-28T13:00:42.433Z,96576.38
2023-04-28T13:03:13.223Z,96574.81
2023-04-28T13:05:54.111Z,96575.72
2023-04-28T13:08:23.341Z,96574.09
2023-04-28T13:11:01.451Z,96576.81
2023-04-28T13:13:34.387Z,96576.50
2023-04-28T13:16:01.574Z,96575.72
2023-04-28T13:18:29.562Z,96585.09
2023-04-28T13:20:56.599Z,96575.00
2023-04-28T13:23:23.822Z,96561.50
2023-04-28T13:25:52.294Z,96567.19
2023-04-28T13:28:20.849Z,96553.75
2023-04-28T13:31:03.538Z,96545.88
2023-04-28T13:33:32.701Z,96540.69
2023-04-28T13:36:01.407Z,96538.28
2023-04-28T13:38:30.764Z,96552.38
2023-04-28T13:40:59.199Z,96533.28
2023-04-28T13:43:46.180Z,96529.47
2023-04-28T13:49:06.815Z,96537.81
2023-04-28T13:51:35.854Z,96556.63
2023-04-28T13:54:08.662Z,96551.59
2023-04-28T13:56:40.844Z,96535.41
2023-04-28T13:59:10.654Z,96536.47
2023-04-28T14:01:43.144Z,96526.56
2023-04-28T14:04:16.664Z,96545.94
2023-04-28T14:06:44.045Z,96542.00
2023-04-28T14:09:18.655Z,96522.66
2023-04-28T14:14:23.094Z,96534.66
2023-04-28T14:16:52.874Z,96540.03
2023-04-28T14:22:18.909Z,96512.66
2023-04-28T14:27:42.426Z,96520.09
2023-04-28T14:30:10.415Z,96533.59
2023-04-28T14:32:44.264Z,96511.41
2023-04-28T14:35:13.526Z,96520.97
2023-04-28T14:37:41.848Z,96517.63
2023-04-28T14:42:56.160Z,96492.97
2023-04-28T14:45:23.798Z,96496.66
2023-04-28T14:47:53.304Z,96517.78
2023-04-28T14:50:22.524Z,96506.78
2023-04-28T14:52:49.921Z,96488.28
2023-04-28T14:55:16.973Z,96497.34
2023-04-28T14:57:43.744Z,96485.56
2023-04-28T15:00:11.169Z,96501.72
2023-04-28T15:02:38.472Z,96498.25
2023-04-28T15:05:06.458Z,96479.06
2023-04-28T15:07:40.428Z,96488.47
2023-04-28T15:10:07.897Z,96484.34
2023-04-28T15:12:36.159Z,96501.44
2023-04-28T15:15:03.101Z,96486.56
2023-04-28T15:17:30.303Z,96477.28
2023-04-28T15:19:57.595Z,96478.34
2023-04-28T15:22:26.050Z,96465.09
2023-04-28T15:24:52.916Z,96464.88
2023-04-28T15:27:20.206Z,96466.47
2023-04-28T15:29:47.123Z,96468.06
2023-04-28T15:32:14.554Z,96470.78
2023-04-28T15:34:41.311Z,96467.81
2023-04-28T15:37:44.729Z,96475.94
2023-04-28T15:40:16.844Z,96479.91
2023-04-28T15:42:52.316Z,96466.03
2023-04-28T15:45:22.544Z,96478.06
2023-04-28T15:47:52.466Z,96485.00
2023-04-28T15:50:20.436Z,96488.50
2023-04-28T15:52:47.869Z,96477.34
2023-04-28T15:55:18.453Z,96487.28
2023-04-28T15:57:46.151Z,96487.00
2023-04-28T16:00:15.718Z,96484.56
2023-04-28T16:02:43.551Z,96480.28
2023-04-28T16:05:11.366Z,96483.63
2023-04-28T16:07:39.167Z,96498.44
2023-04-28T16:10:08.457Z,96492.63
2023-04-28T16:12:35.882Z,96493.69
2023-04-28T16:15:03.519Z,96504.34
2023-04-28T16:17:30.226Z,96492.81
2023-04-28T16:19:57.054Z,96483.81
2023-04-28T16:22:24.133Z,96487.88
2023-04-28T16:24:51.709Z,96496.41
2023-04-28T16:27:18.602Z,96513.19
2023-04-28T16:29:45.965Z,96498.63
2023-04-28T16:32:15.512Z,96495.81
2023-04-28T16:34:42.208Z,96503.59
2023-04-28T16:37:09.753Z,96506.56
2023-04-28T16:39:36.659Z,96511.25
2023-04-28T16:42:05.496Z,96508.50
2023-04-28T16:44:32.508Z,96520.34
2023-04-28T16:46:59.736Z,96525.94
2023-04-28T16:49:26.605Z,96524.34
2023-04-28T16:52:04.185Z,96527.03
2023-04-28T16:54:31.844Z,96548.69
2023-04-28T16:56:59.720Z,96539.03
2023-04-28T16:59:29.692Z,96543.13
2023-04-28T17:02:00.189Z,96550.84
2023-04-28T17:04:28.014Z,96543.84
2023-04-28T17:06:54.946Z,96552.28
2023-04-28T17:09:22.780Z,96553.44
2023-04-28T17:11:50.377Z,96561.09
2023-04-28T17:14:17.388Z,96563.38
2023-04-28T17:16:44.408Z,96562.31
2023-04-28T17:19:11.888Z,96559.53
2023-04-28T17:21:41.753Z,96559.78
2023-04-28T17:24:09.126Z,96562.97
2023-04-28T17:26:38.181Z,96564.28
2023-04-28T17:29:08.703Z,96594.41
2023-04-28T17:31:38.835Z,96581.88
2023-04-28T17:34:06.271Z,96588.44
2023-04-28T17:36:33.775Z,96596.50
2023-04-28T17:39:00.913Z,96591.47
2023-04-28T17:41:28.119Z,96602.06
2023-04-28T17:43:55.532Z,96592.78
2023-04-28T17:46:22.746Z,96596.47
2023-04-28T18:42:19.358Z,96634.91
2023-04-28T18:47:50.304Z,96654.28
2023-04-28T18:50:26.710Z,96653.69
2023-04-28T19:01:08.492Z,96663.25
2023-04-28T19:03:43.718Z,96643.75
2023-04-28T19:06:11.394Z,96645.19
2023-04-28T19:08:52.006Z,96657.81
2023-04-28T19:11:20.463Z,96657.63
2023-04-28T19:13:47.870Z,96667.19
2023-04-28T19:16:15.350Z,96667.59
2023-04-28T19:21:28.992Z,96689.78
2023-04-28T19:24:00.897Z,96674.31
2023-04-28T19:26:28.611Z,96677.81
2023-04-28T19:28:55.339Z,96685.72
2023-04-28T19:31:22.398Z,96679.84
2023-04-28T19:33:49.826Z,96692.47
2023-04-28T19:36:26.377Z,96689.63
2023-04-28T19:38:58.172Z,96693.09
2023-04-28T20:08:53.805Z,96693.28
2023-04-28T20:14:37.379Z,96698.34
2023-04-28T20:17:07.383Z,96701.59
2023-04-28T20:22:17.968Z,96694.91
2023-04-28T20:27:26.058Z,96690.84
2023-04-28T20:29:53.780Z,96697.75
2023-04-28T20:32:23.588Z,96712.41
2023-04-28T20:34:51.094Z,96690.84
2023-04-28T20:37:23.276Z,96693.91
2023-04-28T20:39:52.810Z,96693.47
2023-04-28T20:42:21.249Z,96699.78
2023-04-28T20:52:57.489Z,96695.72
2023-04-28T20:55:25.705Z,96698.97
2023-04-28T20:58:02.136Z,96698.97
2023-04-28T21:00:29.563Z,96705.88
2023-04-28T21:02:57.074Z,96696.91
2023-04-28T21:05:38.259Z,96686.56
2023-04-28T21:08:05.749Z,96688.38
2023-04-28T21:10:39.340Z,96685.53
2023-04-28T21:16:41.047Z,96684.53
2023-04-28T21:21:51.797Z,96683.09
2023-04-28T21:24:22.168Z,96677.41
2023-04-28T21:26:54.815Z,96682.69
2023-04-28T21:42:58.574Z,96673.34
2023-04-28T21:45:25.311Z,96684.72
2023-04-28T21:47:51.979Z,96696.94
2023-04-28T21:50:19.032Z,96697.72
2023-04-28T21:52:45.820Z,96691.59
2023-04-28T21:55:12.684Z,96704.16
2023-04-28T21:57:39.291Z,96694.63
2023-04-28T22:00:10.786Z,96696.44
2023-04-28T22:02:38.977Z,96684.88
2023-04-28T22:05:06.347Z,96676.91
2023-04-28T22:07:33.351Z,96684.81
2023-04-28T22:10:00.230Z,96676.91
2023-04-28T22:12:27.290Z,96681.81
2023-04-28T22:14:54.070Z,96677.72
2023-04-28T22:17:20.905Z,96683.81
2023-04-28T22:19:47.673Z,96679.34
2023-04-28T22:22:14.599Z,96684.22
2023-04-28T22:24:41.243Z,96682.59
2023-04-28T22:27:08.758Z,96690.09
2023-04-28T22:29:35.711Z,96690.31
2023-04-28T22:32:02.902Z,96679.34
2023-04-28T22:34:29.615Z,96683.41
2023-04-28T22:36:56.783Z,96678.50
2023-04-28T22:39:25.205Z,96682.16
2023-04-28T22:41:52.122Z,96675.88
2023-04-28T22:44:19.104Z,96686.84
2023-04-28T22:46:46.263Z,96688.25
2023-04-28T22:49:13.165Z,96680.91
2023-04-28T22:51:39.728Z,96688.25
2023-04-28T22:54:06.299Z,96681.56
2023-04-28T22:56:32.895Z,96685.63
2023-04-28T22:58:59.695Z,96678.09
2023-04-28T23:01:26.443Z,96682.16
2023-04-28T23:03:53.312Z,96679.72
2023-04-28T23:06:20.157Z,96679.09
2023-04-28T23:08:46.893Z,96691.50
2023-04-28T23:11:13.513Z,96680.25
2023-04-28T23:13:40.188Z,96684.94
2023-04-28T23:16:07.182Z,96693.13
2023-04-28T23:18:33.828Z,96690.19
2023-04-28T23:21:00.628Z,96681.06
2023-04-28T23:23:27.246Z,96679.84
2023-04-28T23:25:55.625Z,96693.22
2023-04-28T23:28:22.283Z,96694.66
2023-04-28T23:30:52.042Z,96696.25
2023-04-28T23:33:18.760Z,96697.06
2023-04-28T23:35:45.420Z,96698.69
2023-04-28T23:38:12.520Z,96693.78
2023-04-28T23:40:39.185Z,96704.59
2023-04-28T23:43:06.099Z,96697.44
2023-04-28T23:45:33.055Z,96706.00
2023-04-28T23:47:59.711Z,96715.53
2023-04-28T23:50:27.869Z,96694.19
2023-04-28T23:52:54.456Z,96702.09
2023-04-28T23:55:21.139Z,96711.63
2023-04-28T23:57:47.768Z,96714.91
